KSWF/SWF METAR and TAF weather

Enter ICAO airport designator
Station Type Date Time Source
KSWF METAR 2020/01/23 14:45 UTC NOAA

KSWF 231445Z 26006KT 10SM SKC M01/M06 A3039


Station Type Date Time Source
KSWF Decoded METAR 2020/01/23 14:45 UTC NOAA

Newburgh / Stewart, NY, United States (KSWF) 41-30N 074-06W
Jan 23, 2020 - 09:45 AM EST / 2020.01.23 1445 UTC
Wind: from the W (260 degrees) at 7 MPH (6 KT):0
Visibility: 10 mile(s):0
Sky conditions: clear
Temperature: 30 F (-1 C)
Windchill: 23 F (-5 C):1
Dew Point: 21 F (-6 C)
Relative Humidity: 68%
Pressure (altimeter): 30.39 in. Hg (1029 hPa)
ob: KSWF 231445Z 26006KT 10SM SKC M01/M06 A3039
cycle: 15

Station Type Date Time Source
KSWF TAF 2020/01/23 14:34 UTC NOAA

TAF
AMD KSWF 231332Z 2314/2418 VRB03KT P6SM SCT250
FM240000 00000KT P6SM BKN250
AMD NOT SKED

Example: see airport list